Captain Neal Burgess — WDE6115 — position and weather

sailwx.info

Track history (hours):
 
Tides and Currents Weather Stations Pressure Air Temp Water Temp Dewpoint Dewpoint Depression Visibility Wind Speed Wind Dir Waves Ship Positions

Captain Neal Burgess

Owner: Maine State Ferry Service, Rockland, ME. More information available from US FCC via Universal Licensing System and Coast Guard Vessel Documentation Center.

Last reported at 2017-Nov-19 07:32 UTC. Time now 2017-Nov-19 09:00 UTC.
Position N 44°08' W 068°52'.

Type: Passenger vessel. MMSI: 367375970.

Date/timePositionNaut miles runAvg speedWind from/ knotsBaromVisibWave heightAir tempDewpointWater temp
2017-Nov-19 07:32N 44°08' W 068°52'0 0.0
2017-Nov-19 07:29N 44°08' W 068°52'0 0.0
2017-Nov-19 06:59N 44°08' W 068°52'0 0.0
2017-Nov-19 06:28N 44°08' W 068°52'0 0.0
2017-Nov-19 06:00N 44°08' W 068°52'0 0.0
2017-Nov-19 05:29N 44°08' W 068°52'0 0.0
2017-Nov-19 04:53N 44°08' W 068°52'0 0.0
2017-Nov-19 04:30N 44°08' W 068°52'0 0.0
2017-Nov-19 03:52N 44°08' W 068°52'1 0.1
2017-Nov-18 23:14N 44°08' W 068°53'210.9
2017-Nov-18 23:00N 44°06' W 068°56'510.6
2017-Nov-18 22:30N 44°06' W 069°03'2 2.7
2017-Nov-18 21:47N 44°06' W 069°06'310.2
2017-Nov-18 21:30N 44°06' W 069°02'510.7
2017-Nov-18 21:00N 44°07' W 068°55'2 2.1
2017-Nov-18 20:18N 44°08' W 068°53'310.7
2017-Nov-18 20:00N 44°06' W 068°57'611.2
2017-Nov-18 19:30N 44°06' W 069°05'1 2.7
2017-Nov-18 18:59N 44°06' W 069°06'0 0.7
2017-Nov-18 18:30N 44°06' W 069°06'510.8
2017-Nov-18 18:00N 44°06' W 068°59'5 1.9
2017-Nov-18 15:30N 44°08' W 068°53'510.3
2017-Nov-18 14:59N 44°06' W 068°59'5 3.6
2017-Nov-18 13:36N 44°06' W 069°06'0 5.0
2017-Nov-18 13:30N 44°06' W 069°06'611.1
2017-Nov-18 13:00N 44°06' W 068°58'4 0.5
2017-Nov-18 04:24N 44°08' W 068°52'0 0.0
2017-Nov-18 03:56N 44°08' W 068°52'0 0.0
2017-Nov-18 03:30N 44°08' W 068°52'0 0.0
2017-Nov-18 01:42N 44°08' W 068°52'0 0.0
2017-Nov-18 01:30N 44°08' W 068°52'0 0.0
2017-Nov-18 00:48N 44°08' W 068°52'0 0.0
2017-Nov-18 00:25N 44°08' W 068°52'0 0.0
2017-Nov-17 23:50N 44°08' W 068°52'0 0.0
2017-Nov-17 23:19N 44°08' W 068°52'3 9.0
2017-Nov-17 22:59N 44°06' W 068°56'511.1
2017-Nov-17 22:30N 44°06' W 069°03'2 3.9
2017-Nov-17 21:57N 44°06' W 069°06'3 7.3
2017-Nov-17 21:30N 44°06' W 069°02'510.1
2017-Nov-17 21:00N 44°07' W 068°55'2 2.5
2017-Nov-17 20:19N 44°08' W 068°53'310.7
2017-Nov-17 19:59N 44°06' W 068°57'611.4
2017-Nov-17 19:30N 44°06' W 069°05'1 1.4
2017-Nov-17 18:37N 44°06' W 069°06'1 8.3
2017-Nov-17 18:30N 44°06' W 069°05'610.3
2017-Nov-17 17:56N 44°06' W 068°57'4 1.6
2017-Nov-17 15:33N 44°08' W 068°52'110.9
2017-Nov-17 15:30N 44°08' W 068°53'510.0
2017-Nov-17 15:00N 44°06' W 068°60'5 3.5
2017-Nov-17 13:36N 44°06' W 069°06'1 7.1
2017-Nov-17 13:30N 44°06' W 069°06'510.5
2017-Nov-17 12:59N 44°06' W 068°58'4 6.1
2017-Nov-17 12:16N 44°08' W 068°52'0 0.0
2017-Nov-17 11:58N 44°08' W 068°52'0 0.0
2017-Nov-17 11:27N 44°08' W 068°52'0 0.0
2017-Nov-17 11:00N 44°08' W 068°52'0 0.0
2017-Nov-17 10:25N 44°08' W 068°52'0 0.0
2017-Nov-17 07:04N 44°08' W 068°52'0 0.0
2017-Nov-17 06:37N 44°08' W 068°52'0 0.0
2017-Nov-17 06:29N 44°08' W 068°52'0 0.0
2017-Nov-17 04:52N 44°08' W 068°52'0 0.0
2017-Nov-17 03:27N 44°08' W 068°52'2 0.4
2017-Nov-16 23:06N 44°07' W 068°55'111.3
2017-Nov-16 22:59N 44°06' W 068°56'511.1
2017-Nov-16 22:30N 44°06' W 069°03'2 2.6
2017-Nov-16 21:47N 44°06' W 069°06'3 9.8
2017-Nov-16 21:29N 44°06' W 069°02'7 5.9
2017-Nov-16 20:20N 44°08' W 068°53'410.3
2017-Nov-16 20:00N 44°06' W 068°57'611.2
2017-Nov-16 19:30N 44°06' W 069°05'1 1.1
2017-Nov-16 18:31N 44°06' W 069°06'0 7.3
2017-Nov-16 18:30N 44°06' W 069°06'510.7
2017-Nov-16 18:00N 44°06' W 068°59'3 1.0
2017-Nov-16 15:20N 44°07' W 068°55'310.3
2017-Nov-16 15:00N 44°06' W 068°60'5 3.4
2017-Nov-16 13:33N 44°06' W 069°06'0 6.1
2017-Nov-16 13:30N 44°06' W 069°06'610.8
2017-Nov-16 13:00N 44°06' W 068°58'2 0.1
2017-Nov-15 23:00N 44°06' W 068°56'610.9
2017-Nov-15 22:30N 44°06' W 069°03'2 3.1
2017-Nov-15 21:49N 44°06' W 069°06'3 9.8
2017-Nov-15 21:29N 44°06' W 069°02'510.5
2017-Nov-15 21:00N 44°07' W 068°55'2 2.5
2017-Nov-15 20:19N 44°08' W 068°53'310.0
2017-Nov-15 20:00N 44°06' W 068°57'511.2
2017-Nov-15 19:30N 44°06' W 069°04'1 1.4
2017-Nov-15 18:33N 44°06' W 069°06'0 6.1
2017-Nov-15 18:30N 44°06' W 069°06'510.8
2017-Nov-15 18:00N 44°06' W 068°58'4 1.7
2017-Nov-15 15:29N 44°08' W 068°53'510.0
2017-Nov-15 15:00N 44°06' W 068°59'510.4
2017-Nov-15 14:30N 44°06' W 069°06'0 0.3
2017-Nov-15 14:00N 44°06' W 069°06'0 0.9
2017-Nov-15 13:29N 44°06' W 069°06'511.0
2017-Nov-15 13:00N 44°06' W 068°58'2 0.2
2017-Nov-14 23:03N 44°07' W 068°55'110.9
2017-Nov-14 23:00N 44°06' W 068°56'610.8
2017-Nov-14 22:28N 44°06' W 069°04'2 2.7
2017-Nov-14 21:48N 44°06' W 069°06'3 8.9
2017-Nov-14 21:29N 44°06' W 069°02'510.7
2017-Nov-14 20:59N 44°07' W 068°55'2 3.0
2017-Nov-14 20:22N 44°08' W 068°52'4 9.8
2017-Nov-14 19:59N 44°06' W 068°57'511.1
2017-Nov-14 19:30N 44°06' W 069°05'1 2.6
2017-Nov-14 18:59N 44°06' W 069°06'1 1.2
2017-Nov-14 18:29N 44°06' W 069°06'510.9
2017-Nov-14 18:00N 44°06' W 068°58'4 1.8
2017-Nov-14 15:34N 44°08' W 068°52'1 9.2
2017-Nov-14 15:30N 44°08' W 068°53'5 9.7
2017-Nov-14 15:00N 44°06' W 068°60'5 9.7
2017-Nov-14 14:29N 44°06' W 069°06'0 0.0
2017-Nov-14 13:59N 44°06' W 069°06'2 3.2
2017-Nov-14 13:29N 44°06' W 069°04'511.3
2017-Nov-14 13:01N 44°06' W 068°57'3 0.2
2017-Nov-13 23:11N 44°07' W 068°54'311.0
2017-Nov-13 22:56N 44°06' W 068°57'511.0
2017-Nov-13 22:29N 44°06' W 069°04'2 2.5
2017-Nov-13 21:49N 44°06' W 069°06'9 0.4
2017-Nov-12 23:10N 44°07' W 068°54'211.2
2017-Nov-12 23:00N 44°06' W 068°56'511.1
2017-Nov-12 22:30N 44°06' W 069°04'2 2.7
2017-Nov-12 21:48N 44°06' W 069°06'310.3
2017-Nov-12 21:30N 44°06' W 069°02'510.3
2017-Nov-12 20:59N 44°07' W 068°55'1 1.2
2017-Nov-12 20:16N 44°08' W 068°54'310.9
2017-Nov-12 19:59N 44°06' W 068°57'510.8
2017-Nov-12 19:30N 44°06' W 069°05'1 1.5
2017-Nov-12 18:35N 44°06' W 069°06'1 5.6
2017-Nov-12 18:30N 44°06' W 069°06'611.4
2017-Nov-12 18:00N 44°06' W 068°58'4 1.7
2017-Nov-12 15:31N 44°08' W 068°53'0 8.3
2017-Nov-12 15:30N 44°08' W 068°53'510.2
2017-Nov-12 15:00N 44°06' W 068°60'5 9.5
2017-Nov-12 14:29N 44°06' W 069°06'0 0.0
2017-Nov-12 14:00N 44°06' W 069°06'0 0.8
2017-Nov-12 13:30N 44°06' W 069°06'610.9
2017-Nov-12 13:00N 44°06' W 068°58'4 0.3
2017-Nov-11 23:14N 44°08' W 068°53'310.1
2017-Nov-11 22:59N 44°06' W 068°56'511.2
2017-Nov-11 22:30N 44°06' W 069°03'2 3.4
2017-Nov-11 21:50N 44°06' W 069°06'3 9.7
2017-Nov-11 21:30N 44°06' W 069°02'610.4
2017-Nov-11 20:58N 44°07' W 068°54'1 1.8
2017-Nov-11 20:20N 44°08' W 068°53'310.5
2017-Nov-11 20:00N 44°06' W 068°57'611.1
2017-Nov-11 19:30N 44°06' W 069°05'1 2.3
2017-Nov-11 18:57N 44°06' W 069°06'1 2.3
2017-Nov-11 18:30N 44°06' W 069°05'611.1
2017-Nov-11 17:59N 44°06' W 068°57'4 1.5
2017-Nov-11 15:37N 44°08' W 068°53'110.3
2017-Nov-11 15:29N 44°07' W 068°54'4 9.4
2017-Nov-11 15:00N 44°06' W 069°01'4 8.5
2017-Nov-11 14:30N 44°06' W 069°06'0 0.0
2017-Nov-11 14:00N 44°06' W 069°06'1 1.7
2017-Nov-11 13:30N 44°06' W 069°05'511.0
2017-Nov-11 13:00N 44°06' W 068°58'4 0.3
2017-Nov-10 23:12N 44°08' W 068°53'211.6
2017-Nov-10 23:00N 44°06' W 068°56'510.9
2017-Nov-10 22:30N 44°06' W 069°03'2 3.6
2017-Nov-10 21:52N 44°06' W 069°06'3 9.4
2017-Nov-10 21:31N 44°06' W 069°02'5 9.7
2017-Nov-10 20:59N 44°07' W 068°55'1 1.4
2017-Nov-10 20:15N 44°08' W 068°53'311.1
2017-Nov-10 20:00N 44°06' W 068°57'611.1
2017-Nov-10 19:29N 44°06' W 069°05'1 2.8
2017-Nov-10 18:59N 44°06' W 069°06'1 2.4
2017-Nov-10 18:29N 44°06' W 069°05'510.5
2017-Nov-10 18:00N 44°06' W 068°58'4 1.5
2017-Nov-10 15:29N 44°08' W 068°53'510.5
2017-Nov-10 15:00N 44°06' W 068°59'5 3.8
2017-Nov-10 13:39N 44°06' W 069°06'1 7.4
2017-Nov-10 13:28N 44°06' W 069°05'510.5
2017-Nov-10 13:00N 44°06' W 068°58'1 0.1
2017-Nov-09 22:59N 44°06' W 068°56'511.1
2017-Nov-09 22:30N 44°06' W 069°03'2 3.6
2017-Nov-09 21:52N 44°06' W 069°06'3 7.8
2017-Nov-09 21:30N 44°06' W 069°03'510.7
2017-Nov-09 21:00N 44°07' W 068°55'2 3.3
2017-Nov-09 20:23N 44°08' W 068°53'410.1
2017-Nov-09 20:00N 44°06' W 068°57'511.0
2017-Nov-09 19:30N 44°06' W 069°05'1 2.0
2017-Nov-09 18:55N 44°06' W 069°06'0 1.2
2017-Nov-09 18:30N 44°06' W 069°06'611.1
2017-Nov-09 18:00N 44°06' W 068°58'4 1.8
2017-Nov-09 15:36N 44°08' W 068°53'110.0
2017-Nov-09 15:30N 44°07' W 068°54'510.1
2017-Nov-09 15:00N 44°06' W 069°01'4 2.7
2017-Nov-09 13:36N 44°06' W 069°06'1 6.1
2017-Nov-09 13:30N 44°06' W 069°06'611.3
2017-Nov-09 13:00N 44°06' W 068°58'  
Track history (hours):
 
Tides and Currents Weather Stations Pressure Air Temp Water Temp Dewpoint Dewpoint Depression Visibility Wind Speed Wind Dir Waves Ship Positions

Captain Neal Burgess

Owner: Maine State Ferry Service, Rockland, ME. More information available from US FCC via Universal Licensing System and Coast Guard Vessel Documentation Center.

Last reported at 2017-Nov-19 07:32 UTC. Time now 2017-Nov-19 09:00 UTC.
Position N 44°08' W 068°52'.

Type: Passenger vessel. MMSI: 367375970.

Date/timePositionNaut miles runAvg speedWind from/ knotsBaromVisibWave heightAir tempDewpointWater temp
2017-Nov-19 07:32N 44°08' W 068°52'0 0.0
2017-Nov-19 07:29N 44°08' W 068°52'0 0.0
2017-Nov-19 06:59N 44°08' W 068°52'0 0.0
2017-Nov-19 06:28N 44°08' W 068°52'0 0.0
2017-Nov-19 06:00N 44°08' W 068°52'0 0.0
2017-Nov-19 05:29N 44°08' W 068°52'0 0.0
2017-Nov-19 04:53N 44°08' W 068°52'0 0.0
2017-Nov-19 04:30N 44°08' W 068°52'0 0.0
2017-Nov-19 03:52N 44°08' W 068°52'1 0.1
2017-Nov-18 23:14N 44°08' W 068°53'210.9
2017-Nov-18 23:00N 44°06' W 068°56'510.6
2017-Nov-18 22:30N 44°06' W 069°03'2 2.7
2017-Nov-18 21:47N 44°06' W 069°06'310.2
2017-Nov-18 21:30N 44°06' W 069°02'510.7
2017-Nov-18 21:00N 44°07' W 068°55'2 2.1
2017-Nov-18 20:18N 44°08' W 068°53'310.7
2017-Nov-18 20:00N 44°06' W 068°57'611.2
2017-Nov-18 19:30N 44°06' W 069°05'1 2.7
2017-Nov-18 18:59N 44°06' W 069°06'0 0.7
2017-Nov-18 18:30N 44°06' W 069°06'510.8
2017-Nov-18 18:00N 44°06' W 068°59'5 1.9
2017-Nov-18 15:30N 44°08' W 068°53'510.3
2017-Nov-18 14:59N 44°06' W 068°59'5 3.6
2017-Nov-18 13:36N 44°06' W 069°06'0 5.0
2017-Nov-18 13:30N 44°06' W 069°06'611.1
2017-Nov-18 13:00N 44°06' W 068°58'4 0.5
2017-Nov-18 04:24N 44°08' W 068°52'0 0.0
2017-Nov-18 03:56N 44°08' W 068°52'0 0.0
2017-Nov-18 03:30N 44°08' W 068°52'0 0.0
2017-Nov-18 01:42N 44°08' W 068°52'0 0.0
2017-Nov-18 01:30N 44°08' W 068°52'0 0.0
2017-Nov-18 00:48N 44°08' W 068°52'0 0.0
2017-Nov-18 00:25N 44°08' W 068°52'0 0.0
2017-Nov-17 23:50N 44°08' W 068°52'0 0.0
2017-Nov-17 23:19N 44°08' W 068°52'3 9.0
2017-Nov-17 22:59N 44°06' W 068°56'511.1
2017-Nov-17 22:30N 44°06' W 069°03'2 3.9
2017-Nov-17 21:57N 44°06' W 069°06'3 7.3
2017-Nov-17 21:30N 44°06' W 069°02'510.1
2017-Nov-17 21:00N 44°07' W 068°55'2 2.5
2017-Nov-17 20:19N 44°08' W 068°53'310.7
2017-Nov-17 19:59N 44°06' W 068°57'611.4
2017-Nov-17 19:30N 44°06' W 069°05'1 1.4
2017-Nov-17 18:37N 44°06' W 069°06'1 8.3
2017-Nov-17 18:30N 44°06' W 069°05'610.3
2017-Nov-17 17:56N 44°06' W 068°57'4 1.6
2017-Nov-17 15:33N 44°08' W 068°52'110.9
2017-Nov-17 15:30N 44°08' W 068°53'510.0
2017-Nov-17 15:00N 44°06' W 068°60'5 3.5
2017-Nov-17 13:36N 44°06' W 069°06'1 7.1
2017-Nov-17 13:30N 44°06' W 069°06'510.5
2017-Nov-17 12:59N 44°06' W 068°58'4 6.1
2017-Nov-17 12:16N 44°08' W 068°52'0 0.0
2017-Nov-17 11:58N 44°08' W 068°52'0 0.0
2017-Nov-17 11:27N 44°08' W 068°52'0 0.0
2017-Nov-17 11:00N 44°08' W 068°52'0 0.0
2017-Nov-17 10:25N 44°08' W 068°52'0 0.0
2017-Nov-17 07:04N 44°08' W 068°52'0 0.0
2017-Nov-17 06:37N 44°08' W 068°52'0 0.0
2017-Nov-17 06:29N 44°08' W 068°52'0 0.0
2017-Nov-17 04:52N 44°08' W 068°52'0 0.0
2017-Nov-17 03:27N 44°08' W 068°52'2 0.4
2017-Nov-16 23:06N 44°07' W 068°55'111.3
2017-Nov-16 22:59N 44°06' W 068°56'511.1
2017-Nov-16 22:30N 44°06' W 069°03'2 2.6
2017-Nov-16 21:47N 44°06' W 069°06'3 9.8
2017-Nov-16 21:29N 44°06' W 069°02'7 5.9
2017-Nov-16 20:20N 44°08' W 068°53'410.3
2017-Nov-16 20:00N 44°06' W 068°57'611.2
2017-Nov-16 19:30N 44°06' W 069°05'1 1.1
2017-Nov-16 18:31N 44°06' W 069°06'0 7.3
2017-Nov-16 18:30N 44°06' W 069°06'510.7
2017-Nov-16 18:00N 44°06' W 068°59'3 1.0
2017-Nov-16 15:20N 44°07' W 068°55'310.3
2017-Nov-16 15:00N 44°06' W 068°60'5 3.4
2017-Nov-16 13:33N 44°06' W 069°06'0 6.1
2017-Nov-16 13:30N 44°06' W 069°06'610.8
2017-Nov-16 13:00N 44°06' W 068°58'2 0.1
2017-Nov-15 23:00N 44°06' W 068°56'610.9
2017-Nov-15 22:30N 44°06' W 069°03'2 3.1
2017-Nov-15 21:49N 44°06' W 069°06'3 9.8
2017-Nov-15 21:29N 44°06' W 069°02'510.5
2017-Nov-15 21:00N 44°07' W 068°55'2 2.5
2017-Nov-15 20:19N 44°08' W 068°53'310.0
2017-Nov-15 20:00N 44°06' W 068°57'511.2
2017-Nov-15 19:30N 44°06' W 069°04'1 1.4
2017-Nov-15 18:33N 44°06' W 069°06'0 6.1
2017-Nov-15 18:30N 44°06' W 069°06'510.8
2017-Nov-15 18:00N 44°06' W 068°58'4 1.7
2017-Nov-15 15:29N 44°08' W 068°53'510.0
2017-Nov-15 15:00N 44°06' W 068°59'510.4
2017-Nov-15 14:30N 44°06' W 069°06'0 0.3
2017-Nov-15 14:00N 44°06' W 069°06'0 0.9
2017-Nov-15 13:29N 44°06' W 069°06'511.0
2017-Nov-15 13:00N 44°06' W 068°58'2 0.2
2017-Nov-14 23:03N 44°07' W 068°55'110.9
2017-Nov-14 23:00N 44°06' W 068°56'610.8
2017-Nov-14 22:28N 44°06' W 069°04'2 2.7
2017-Nov-14 21:48N 44°06' W 069°06'3 8.9
2017-Nov-14 21:29N 44°06' W 069°02'510.7
2017-Nov-14 20:59N 44°07' W 068°55'2 3.0
2017-Nov-14 20:22N 44°08' W 068°52'4 9.8
2017-Nov-14 19:59N 44°06' W 068°57'511.1
2017-Nov-14 19:30N 44°06' W 069°05'1 2.6
2017-Nov-14 18:59N 44°06' W 069°06'1 1.2
2017-Nov-14 18:29N 44°06' W 069°06'510.9
2017-Nov-14 18:00N 44°06' W 068°58'4 1.8
2017-Nov-14 15:34N 44°08' W 068°52'1 9.2
2017-Nov-14 15:30N 44°08' W 068°53'5 9.7
2017-Nov-14 15:00N 44°06' W 068°60'5 9.7
2017-Nov-14 14:29N 44°06' W 069°06'0 0.0
2017-Nov-14 13:59N 44°06' W 069°06'2 3.2
2017-Nov-14 13:29N 44°06' W 069°04'511.3
2017-Nov-14 13:01N 44°06' W 068°57'3 0.2
2017-Nov-13 23:11N 44°07' W 068°54'311.0
2017-Nov-13 22:56N 44°06' W 068°57'511.0
2017-Nov-13 22:29N 44°06' W 069°04'2 2.5
2017-Nov-13 21:49N 44°06' W 069°06'9 0.4
2017-Nov-12 23:10N 44°07' W 068°54'211.2
2017-Nov-12 23:00N 44°06' W 068°56'511.1
2017-Nov-12 22:30N 44°06' W 069°04'2 2.7
2017-Nov-12 21:48N 44°06' W 069°06'310.3
2017-Nov-12 21:30N 44°06' W 069°02'510.3
2017-Nov-12 20:59N 44°07' W 068°55'1 1.2
2017-Nov-12 20:16N 44°08' W 068°54'310.9
2017-Nov-12 19:59N 44°06' W 068°57'510.8
2017-Nov-12 19:30N 44°06' W 069°05'1 1.5
2017-Nov-12 18:35N 44°06' W 069°06'1 5.6
2017-Nov-12 18:30N 44°06' W 069°06'611.4
2017-Nov-12 18:00N 44°06' W 068°58'4 1.7
2017-Nov-12 15:31N 44°08' W 068°53'0 8.3
2017-Nov-12 15:30N 44°08' W 068°53'510.2
2017-Nov-12 15:00N 44°06' W 068°60'5 9.5
2017-Nov-12 14:29N 44°06' W 069°06'0 0.0
2017-Nov-12 14:00N 44°06' W 069°06'0 0.8
2017-Nov-12 13:30N 44°06' W 069°06'610.9
2017-Nov-12 13:00N 44°06' W 068°58'4 0.3
2017-Nov-11 23:14N 44°08' W 068°53'310.1
2017-Nov-11 22:59N 44°06' W 068°56'511.2
2017-Nov-11 22:30N 44°06' W 069°03'2 3.4
2017-Nov-11 21:50N 44°06' W 069°06'3 9.7
2017-Nov-11 21:30N 44°06' W 069°02'610.4
2017-Nov-11 20:58N 44°07' W 068°54'1 1.8
2017-Nov-11 20:20N 44°08' W 068°53'310.5
2017-Nov-11 20:00N 44°06' W 068°57'611.1
2017-Nov-11 19:30N 44°06' W 069°05'1 2.3
2017-Nov-11 18:57N 44°06' W 069°06'1 2.3
2017-Nov-11 18:30N 44°06' W 069°05'611.1
2017-Nov-11 17:59N 44°06' W 068°57'4 1.5
2017-Nov-11 15:37N 44°08' W 068°53'110.3
2017-Nov-11 15:29N 44°07' W 068°54'4 9.4
2017-Nov-11 15:00N 44°06' W 069°01'4 8.5
2017-Nov-11 14:30N 44°06' W 069°06'0 0.0
2017-Nov-11 14:00N 44°06' W 069°06'1 1.7
2017-Nov-11 13:30N 44°06' W 069°05'511.0
2017-Nov-11 13:00N 44°06' W 068°58'4 0.3
2017-Nov-10 23:12N 44°08' W 068°53'211.6
2017-Nov-10 23:00N 44°06' W 068°56'510.9
2017-Nov-10 22:30N 44°06' W 069°03'2 3.6
2017-Nov-10 21:52N 44°06' W 069°06'3 9.4
2017-Nov-10 21:31N 44°06' W 069°02'5 9.7
2017-Nov-10 20:59N 44°07' W 068°55'1 1.4
2017-Nov-10 20:15N 44°08' W 068°53'311.1
2017-Nov-10 20:00N 44°06' W 068°57'611.1
2017-Nov-10 19:29N 44°06' W 069°05'1 2.8
2017-Nov-10 18:59N 44°06' W 069°06'1 2.4
2017-Nov-10 18:29N 44°06' W 069°05'510.5
2017-Nov-10 18:00N 44°06' W 068°58'4 1.5
2017-Nov-10 15:29N 44°08' W 068°53'510.5
2017-Nov-10 15:00N 44°06' W 068°59'5 3.8
2017-Nov-10 13:39N 44°06' W 069°06'1 7.4
2017-Nov-10 13:28N 44°06' W 069°05'510.5
2017-Nov-10 13:00N 44°06' W 068°58'1 0.1
2017-Nov-09 22:59N 44°06' W 068°56'511.1
2017-Nov-09 22:30N 44°06' W 069°03'2 3.6
2017-Nov-09 21:52N 44°06' W 069°06'3 7.8
2017-Nov-09 21:30N 44°06' W 069°03'510.7
2017-Nov-09 21:00N 44°07' W 068°55'2 3.3
2017-Nov-09 20:23N 44°08' W 068°53'410.1
2017-Nov-09 20:00N 44°06' W 068°57'511.0
2017-Nov-09 19:30N 44°06' W 069°05'1 2.0
2017-Nov-09 18:55N 44°06' W 069°06'0 1.2
2017-Nov-09 18:30N 44°06' W 069°06'611.1
2017-Nov-09 18:00N 44°06' W 068°58'4 1.8
2017-Nov-09 15:36N 44°08' W 068°53'110.0
2017-Nov-09 15:30N 44°07' W 068°54'510.1
2017-Nov-09 15:00N 44°06' W 069°01'4 2.7
2017-Nov-09 13:36N 44°06' W 069°06'1 6.1
2017-Nov-09 13:30N 44°06' W 069°06'611.3
2017-Nov-09 13:00N 44°06' W 068°58'  

Dump ship's entire track history